LFRN/RNS METAR and TAF weather

Enter ICAO airport designator
Station Type Date Time Source
LFRN METAR 2021/03/01 03:00 UTC NOAA

LFRN 010300Z AUTO 01004KT 8000 NSC 02/00 Q1027 TEMPO 3000 BR


Station Type Date Time Source
LFRN Decoded METAR 2021/03/01 03:00 UTC NOAA

Rennes, France (LFRN) 48-04N 001-44W 37M
Feb 28, 2021 - 10:00 PM EST / 2021.03.01 0300 UTC
Wind: from the N (010 degrees) at 5 MPH (4 KT):0
Visibility: 4 mile(s):0
Temperature: 35 F (2 C)
Windchill: 30 F (-1 C):1
Dew Point: 32 F (0 C)
Relative Humidity: 86%
Pressure (altimeter): 30.33 in. Hg (1027 hPa)
ob: LFRN 010300Z AUTO 01004KT 8000 NSC 02/00 Q1027 TEMPO 3000 BR
cycle: 3

Station Type Date Time Source
LFRN TAF 2021/02/28 18:21 UTC NOAA

TAF LFRN 281700Z 2818/0118 08010KT CAVOK
BECMG 2819/2821 VRB05KT
TEMPO 0100/0108 3000 BR PROB30
TEMPO 0104/0108 0500 FG

Example: see airport list